Iblea — IBFK — position and weather

sailwx.info

Track history (hours):
 
Tides and Currents Weather Stations Pressure Air Temp Water Temp Dewpoint Dewpoint Depression Visibility Wind Speed Wind Dir Waves Ship Positions

Iblea

Last reported at 2014-Nov-29 08:33 UTC. Time now 2014-Nov-29 08:43 UTC.
Position N 35°54' E 014°48'.

Length 176 m; draft 11.1 m.

Type: Ship (hazmat cat C). MMSI: 247087700.

Date/timePositionNaut miles runAvg speedWind from/ knotsBaromVisibWave heightAir tempDewpointWater temp
2014-Nov-29 08:33N 35°54' E 014°48'0 0.0
2014-Nov-29 07:33N 35°54' E 014°48'0 0.0
2014-Nov-28 23:18N 35°54' E 014°48'0 0.0
2014-Nov-28 22:30N 35°54' E 014°48'0 0.0
2014-Nov-28 21:33N 35°54' E 014°48'0 0.0
2014-Nov-28 20:30N 35°54' E 014°48'0 0.0
2014-Nov-28 09:27N 35°54' E 014°48'0 0.0
2014-Nov-27 23:14N 35°54' E 014°48'2 2.2
2014-Nov-27 22:34N 35°53' E 014°47'1111.1
2014-Nov-27 21:33N 35°45' E 014°37'0 0.4
2014-Nov-27 20:25N 35°45' E 014°37'1 1.1
2014-Nov-27 19:34N 35°45' E 014°38'1 1.0
2014-Nov-27 18:24N 35°46' E 014°39'7 8.0
2014-Nov-27 17:31N 35°53' E 014°37'6312.6
2014-Nov-27 12:30N 36°40' E 013°45'1313.7
2014-Nov-27 11:33N 36°49' E 013°34'43213.3
2014-Nov-26 03:03N 40°01' E 005°20'6013.2
2014-Nov-25 22:31N 40°29' E 004°10'1212.7
2014-Nov-25 21:33N 40°35' E 003°56'1313.2
2014-Nov-25 20:33N 40°41' E 003°41'1313.3
2014-Nov-25 19:33N 40°47' E 003°26'1313.2
2014-Nov-25 18:33N 40°53' E 003°10'1313.4
2014-Nov-25 17:33N 40°59' E 002°54'1313.4
2014-Nov-25 16:33N 41°06' E 002°39'1413.6
2014-Nov-25 15:33N 41°12' E 002°22'13 0.3
2014-Nov-23 15:32N 41°20' E 002°10'0 0.0
2014-Nov-23 14:14N 41°20' E 002°10'0 0.0
2014-Nov-22 14:23N 41°20' E 002°10'1 1.0
2014-Nov-22 13:33N 41°19' E 002°10'2 1.7
2014-Nov-22 12:31N 41°19' E 002°12'0 0.0
2014-Nov-22 11:25N 41°19' E 002°12'0 0.0
2014-Nov-22 10:13N 41°19' E 002°12'0 0.0
2014-Nov-22 08:31N 41°19' E 002°12'0 0.0
2014-Nov-22 07:13N 41°19' E 002°12'0 0.1
2014-Nov-22 06:31N 41°19' E 002°12'0 0.0
2014-Nov-22 05:31N 41°19' E 002°12'0 0.0
2014-Nov-22 02:19N 41°19' E 002°12'0 0.1
2014-Nov-22 01:22N 41°19' E 002°12'3 0.4
2014-Nov-21 18:09N 41°20' E 002°09'1 0.0
2014-Nov-20 00:33N 41°20' E 002°10'2 0.2
2014-Nov-19 13:29N 41°19' E 002°11'1110.1
2014-Nov-19 12:23N 41°09' E 002°20'1113.2
2014-Nov-19 11:33N 41°01' E 002°28'1413.9
2014-Nov-19 10:33N 40°49' E 002°39'1413.7
2014-Nov-19 09:33N 40°39' E 002°51'1413.7
2014-Nov-19 08:33N 40°28' E 003°02'  
Track history (hours):
 
Tides and Currents Weather Stations Pressure Air Temp Water Temp Dewpoint Dewpoint Depression Visibility Wind Speed Wind Dir Waves Ship Positions

Iblea

Last reported at 2014-Nov-29 08:33 UTC. Time now 2014-Nov-29 08:43 UTC.
Position N 35°54' E 014°48'.

Length 176 m; draft 11.1 m.

Type: Ship (hazmat cat C). MMSI: 247087700.

Date/timePositionNaut miles runAvg speedWind from/ knotsBaromVisibWave heightAir tempDewpointWater temp
2014-Nov-29 08:33N 35°54' E 014°48'0 0.0
2014-Nov-29 07:33N 35°54' E 014°48'0 0.0
2014-Nov-28 23:18N 35°54' E 014°48'0 0.0
2014-Nov-28 22:30N 35°54' E 014°48'0 0.0
2014-Nov-28 21:33N 35°54' E 014°48'0 0.0
2014-Nov-28 20:30N 35°54' E 014°48'0 0.0
2014-Nov-28 09:27N 35°54' E 014°48'0 0.0
2014-Nov-27 23:14N 35°54' E 014°48'2 2.2
2014-Nov-27 22:34N 35°53' E 014°47'1111.1
2014-Nov-27 21:33N 35°45' E 014°37'0 0.4
2014-Nov-27 20:25N 35°45' E 014°37'1 1.1
2014-Nov-27 19:34N 35°45' E 014°38'1 1.0
2014-Nov-27 18:24N 35°46' E 014°39'7 8.0
2014-Nov-27 17:31N 35°53' E 014°37'6312.6
2014-Nov-27 12:30N 36°40' E 013°45'1313.7
2014-Nov-27 11:33N 36°49' E 013°34'43213.3
2014-Nov-26 03:03N 40°01' E 005°20'6013.2
2014-Nov-25 22:31N 40°29' E 004°10'1212.7
2014-Nov-25 21:33N 40°35' E 003°56'1313.2
2014-Nov-25 20:33N 40°41' E 003°41'1313.3
2014-Nov-25 19:33N 40°47' E 003°26'1313.2
2014-Nov-25 18:33N 40°53' E 003°10'1313.4
2014-Nov-25 17:33N 40°59' E 002°54'1313.4
2014-Nov-25 16:33N 41°06' E 002°39'1413.6
2014-Nov-25 15:33N 41°12' E 002°22'13 0.3
2014-Nov-23 15:32N 41°20' E 002°10'0 0.0
2014-Nov-23 14:14N 41°20' E 002°10'0 0.0
2014-Nov-22 14:23N 41°20' E 002°10'1 1.0
2014-Nov-22 13:33N 41°19' E 002°10'2 1.7
2014-Nov-22 12:31N 41°19' E 002°12'0 0.0
2014-Nov-22 11:25N 41°19' E 002°12'0 0.0
2014-Nov-22 10:13N 41°19' E 002°12'0 0.0
2014-Nov-22 08:31N 41°19' E 002°12'0 0.0
2014-Nov-22 07:13N 41°19' E 002°12'0 0.1
2014-Nov-22 06:31N 41°19' E 002°12'0 0.0
2014-Nov-22 05:31N 41°19' E 002°12'0 0.0
2014-Nov-22 02:19N 41°19' E 002°12'0 0.1
2014-Nov-22 01:22N 41°19' E 002°12'3 0.4
2014-Nov-21 18:09N 41°20' E 002°09'1 0.0
2014-Nov-20 00:33N 41°20' E 002°10'2 0.2
2014-Nov-19 13:29N 41°19' E 002°11'1110.1
2014-Nov-19 12:23N 41°09' E 002°20'1113.2
2014-Nov-19 11:33N 41°01' E 002°28'1413.9
2014-Nov-19 10:33N 40°49' E 002°39'1413.7
2014-Nov-19 09:33N 40°39' E 002°51'1413.7
2014-Nov-19 08:33N 40°28' E 003°02'  

Dump ship's entire track history